Time;durP1;ratioP1;P1;durP2;ratioP2;P2;SDS_P1;SDS_P2;PMS_P1;PMS_P2;Temp;Humidity;BMP_temperature;BMP_pressure;BME280_temperature;BME280_humidity;BME280_pressure;Samples;Min_cycle;Max_cycle;Signal;HPM_P1;HPM_P2
2023/06/02 00:01:00;;;;;;;;;3.33;2.33;;;;;26.41;32.96;101936.81;6179778;23;45393;-73
2023/06/02 00:03:31;;;;;;;;;2.00;2.00;;;;;26.43;32.71;101939.28;6178988;23;46483;-73
2023/06/02 00:06:00;;;;;;;;;2.33;2.33;;;;;26.46;33.26;101946.97;6260582;22;45293;-73
2023/06/02 00:08:27;;;;;;;;;3.00;3.00;;;;;26.47;32.51;101940.59;6304777;22;45313;-73
2023/06/02 00:10:53;;;;;;;;;2.00;1.00;;;;;26.41;33.24;101924.28;6304629;22;45288;-73
2023/06/02 00:13:18;;;;;;;;;3.00;3.00;;;;;26.41;32.96;101928.81;6304639;22;45256;-73
2023/06/02 00:15:44;;;;;;;;;6.33;3.33;;;;;26.40;32.63;101929.81;6305095;22;45303;-73
2023/06/02 00:18:09;;;;;;;;;4.00;4.00;;;;;26.29;32.88;101913.25;6303434;22;45261;-73
2023/06/02 00:20:35;;;;;;;;;3.33;3.33;;;;;26.41;32.95;101940.28;6304722;22;45246;-73
2023/06/02 00:23:02;;;;;;;;;3.00;3.00;;;;;26.36;33.00;101923.22;6304480;22;47249;-73
2023/06/02 00:25:28;;;;;;;;;4.00;3.00;;;;;26.35;33.05;101922.38;6304233;22;45443;-73
2023/06/02 00:27:53;;;;;;;;;2.00;2.00;;;;;26.44;33.09;101939.13;6304714;22;45334;-73
2023/06/02 00:30:19;;;;;;;;;2.67;2.67;;;;;26.42;32.74;101933.13;6304813;22;45320;-73
2023/06/02 00:32:44;;;;;;;;;4.00;3.00;;;;;26.41;33.04;101936.81;6304385;22;45557;-73
2023/06/02 00:35:10;;;;;;;;;2.67;2.00;;;;;26.39;33.04;101928.16;6304866;22;45319;-73
2023/06/02 00:37:35;;;;;;;;;2.00;2.00;;;;;26.36;32.90;101931.22;6305288;22;45319;-73
2023/06/02 00:40:00;;;;;;;;;4.67;3.33;;;;;26.39;32.68;101941.50;6304608;22;45418;-73
2023/06/02 00:42:26;;;;;;;;;3.00;3.00;;;;;26.40;32.58;101951.16;6304915;22;46637;-73
2023/06/02 00:44:51;;;;;;;;;2.00;2.00;;;;;26.38;32.62;101942.53;6304508;22;45215;-74
2023/06/02 00:47:16;;;;;;;;;4.00;3.00;;;;;26.39;32.88;101953.00;6302679;22;45424;-73
2023/06/02 00:49:42;;;;;;;;;4.00;2.00;;;;;26.38;32.77;101945.19;6302949;22;45421;-73
2023/06/02 00:52:08;;;;;;;;;4.33;3.33;;;;;26.36;32.62;101942.69;6303881;22;46147;-73
2023/06/02 00:54:35;;;;;;;;;2.00;2.00;;;;;26.37;32.92;101941.69;6303716;22;45213;-73
2023/06/02 00:57:00;;;;;;;;;2.00;2.00;;;;;26.37;32.84;101938.19;6304562;22;45209;-73
2023/06/02 00:59:25;;;;;;;;;4.00;3.00;;;;;26.33;32.68;101927.06;6305117;22;45150;-73
2023/06/02 01:01:53;;;;;;;;;4.00;2.67;;;;;26.36;32.33;101932.00;6302421;22;45767;-73
2023/06/02 01:04:20;;;;;;;;;3.00;3.00;;;;;26.35;32.37;101921.53;6304879;22;45269;-73
2023/06/02 01:06:48;;;;;;;;;5.00;4.00;;;;;26.35;32.59;101922.38;6304518;22;45279;-73
2023/06/02 01:09:16;;;;;;;;;2.67;2.67;;;;;26.38;32.76;101931.84;6304053;22;45236;-73
2023/06/02 01:11:43;;;;;;;;;3.00;2.00;;;;;26.39;32.40;101945.00;6304186;22;46139;-73
2023/06/02 01:14:09;;;;;;;;;3.00;3.00;;;;;26.35;32.44;101926.88;6302619;22;45298;-73
2023/06/02 01:16:35;;;;;;;;;2.00;2.00;;;;;26.37;32.42;101930.19;6304496;22;45300;-73
2023/06/02 01:19:01;;;;;;;;;2.33;2.33;;;;;26.38;32.41;101932.69;6304798;22;45362;-73
2023/06/02 01:21:30;;;;;;;;;2.00;2.00;;;;;26.39;32.85;101934.31;6304296;22;45452;-73
2023/06/02 01:23:59;;;;;;;;;2.00;2.00;;;;;26.40;32.24;101940.50;6304184;22;45231;-73
2023/06/02 01:26:25;;;;;;;;;4.33;4.33;;;;;26.40;32.42;101935.16;6304375;22;45259;-73
2023/06/02 01:28:50;;;;;;;;;3.00;3.00;;;;;26.38;32.55;101943.34;6304385;22;45351;-73
2023/06/02 01:31:25;;;;;;;;;4.33;4.00;;;;;26.36;32.93;101941.88;6304535;22;45966;-73
2023/06/02 01:34:13;;;;;;;;;4.00;4.00;;;;;26.38;32.28;101938.03;6304554;22;45283;-73
2023/06/02 01:36:41;;;;;;;;;2.00;2.00;;;;;26.23;32.86;101921.19;6284768;22;45153;-73
2023/06/02 01:39:08;;;;;;;;;3.00;3.00;;;;;26.39;32.68;101934.31;6302878;22;45557;-73
2023/06/02 01:41:40;;;;;;;;;2.00;2.00;;;;;26.37;32.37;101931.00;6304078;22;45375;-73
2023/06/02 01:44:06;;;;;;;;;4.00;4.00;;;;;26.38;32.69;101932.69;6304267;22;45301;-73
2023/06/02 01:46:31;;;;;;;;;5.00;5.00;;;;;26.33;32.25;101924.41;6304907;22;45226;-73
2023/06/02 01:48:56;;;;;;;;;4.33;3.00;;;;;26.33;32.93;101924.41;6303864;22;45318;-73
2023/06/02 01:51:22;;;;;;;;;2.00;2.00;;;;;26.28;32.50;101913.44;6304190;22;45477;-73
2023/06/02 01:53:47;;;;;;;;;5.33;4.67;;;;;26.33;32.63;101918.22;6304148;22;45395;-73
2023/06/02 01:56:13;;;;;;;;;6.00;5.00;;;;;26.29;32.39;101904.41;6303932;22;45277;-73
2023/06/02 01:58:38;;;;;;;;;4.00;4.00;;;;;26.29;32.54;101920.44;6304342;22;45372;-73
2023/06/02 02:01:04;;;;;;;;;5.00;5.00;;;;;26.31;32.47;101917.59;6303779;22;46748;-73
2023/06/02 02:03:30;;;;;;;;;4.00;4.00;;;;;26.29;32.39;101920.44;6303928;22;45477;-73
2023/06/02 02:05:56;;;;;;;;;3.00;3.00;;;;;26.35;32.15;101930.38;6303821;22;45299;-73
2023/06/02 02:08:21;;;;;;;;;4.33;3.67;;;;;26.35;32.48;101930.38;6304005;22;45495;-73
2023/06/02 02:10:46;;;;;;;;;5.67;5.67;;;;;26.17;32.51;101904.91;6303781;22;46926;-73
2023/06/02 02:13:12;;;;;;;;;5.00;5.00;;;;;26.35;32.50;101937.53;6303908;22;45209;-73
2023/06/02 02:15:37;;;;;;;;;4.00;3.00;;;;;26.31;32.19;101938.94;6303977;22;45531;-73
2023/06/02 02:18:03;;;;;;;;;3.67;3.67;;;;;26.31;32.62;101944.28;6304162;22;45193;-74
2023/06/02 02:20:28;;;;;;;;;4.00;3.67;;;;;26.33;32.13;101942.25;6303755;22;45468;-74
2023/06/02 02:22:54;;;;;;;;;3.00;3.00;;;;;26.26;32.38;101939.47;6304353;22;45197;-73
2023/06/02 02:25:19;;;;;;;;;4.67;4.67;;;;;26.28;32.39;101924.94;6304047;22;45195;-73
2023/06/02 02:27:45;;;;;;;;;5.00;5.00;;;;;26.33;32.13;101934.25;6303524;22;45382;-73
2023/06/02 02:30:10;;;;;;;;;4.00;4.00;;;;;26.32;32.29;101946.75;6303259;22;45514;-73
2023/06/02 02:32:41;;;;;;;;;6.00;6.00;;;;;26.33;32.13;101935.06;6303716;22;45204;-73
2023/06/02 02:35:07;;;;;;;;;4.00;4.00;;;;;26.31;32.36;101945.06;6303605;22;45197;-73
2023/06/02 02:37:33;;;;;;;;;4.67;4.67;;;;;26.33;31.96;101950.25;6303826;22;45182;-73
2023/06/02 02:39:58;;;;;;;;;5.33;5.33;;;;;26.32;32.23;101946.75;6303548;22;45317;-73
2023/06/02 02:42:24;;;;;;;;;4.67;4.67;;;;;26.27;32.18;101938.47;6303575;22;45248;-73
2023/06/02 02:44:49;;;;;;;;;4.00;4.00;;;;;26.30;32.11;101935.44;6303822;22;45226;-73
2023/06/02 02:47:15;;;;;;;;;4.67;4.67;;;;;26.29;31.80;101942.59;6304120;22;45331;-73
2023/06/02 02:49:40;;;;;;;;;5.00;5.00;;;;;26.26;32.33;101944.78;6302911;22;45661;-72
2023/06/02 02:52:06;;;;;;;;;5.33;3.33;;;;;26.28;31.98;101948.94;6302039;22;45364;-73
2023/06/02 02:54:31;;;;;;;;;6.67;6.00;;;;;26.29;32.08;101957.78;6304127;22;45275;-73
2023/06/02 02:56:57;;;;;;;;;4.67;4.67;;;;;26.25;31.98;101957.31;6302151;22;45376;-73
2023/06/02 02:59:22;;;;;;;;;9.00;7.67;;;;;26.27;31.85;101960.63;6301824;22;47606;-73
2023/06/02 03:01:47;;;;;;;;;5.00;4.00;;;;;26.23;31.86;101937.19;6303473;22;45379;-73
2023/06/02 03:04:21;;;;;;;;;5.33;5.33;;;;;26.23;32.43;101954.00;6303662;22;45631;-73
2023/06/02 03:06:49;;;;;;;;;5.67;5.67;;;;;26.22;32.23;101944.34;6303605;22;45460;-73
2023/06/02 03:09:16;;;;;;;;;6.33;6.33;;;;;26.25;32.06;101969.81;6303018;22;46122;-73
2023/06/02 03:11:42;;;;;;;;;6.33;4.67;;;;;26.23;31.54;101966.53;6303293;22;45227;-73
2023/06/02 03:14:07;;;;;;;;;6.67;6.00;;;;;26.18;31.70;101964.38;6302014;22;45190;-73
2023/06/02 03:16:34;;;;;;;;;5.00;4.67;;;;;26.18;32.34;101959.03;6304496;22;45403;-73
2023/06/02 03:19:00;;;;;;;;;4.33;3.00;;;;;26.22;32.02;101964.84;6304864;22;45539;-73
2023/06/02 03:21:26;;;;;;;;;5.00;5.00;;;;;26.16;31.86;101948.56;6305293;22;45272;-73
2023/06/02 03:23:53;;;;;;;;;6.67;4.33;;;;;26.25;31.81;101961.81;6304970;22;45506;-74
2023/06/02 03:26:25;;;;;;;;;4.00;4.00;;;;;26.25;32.11;101976.00;6305009;22;45516;-73
2023/06/02 03:28:51;;;;;;;;;5.67;4.33;;;;;26.18;31.80;101954.53;6304667;22;45394;-73
2023/06/02 03:31:16;;;;;;;;;4.00;4.00;;;;;26.16;31.90;101961.91;6303219;22;45147;-73
2023/06/02 03:33:41;;;;;;;;;6.00;5.00;;;;;26.18;31.89;101970.53;6305162;22;45213;-73
2023/06/02 03:36:07;;;;;;;;;5.00;5.00;;;;;26.22;31.72;101983.53;6304964;22;45463;-73
2023/06/02 03:38:33;;;;;;;;;6.33;5.67;;;;;26.18;31.98;101975.88;6304764;22;45440;-73
2023/06/02 03:40:58;;;;;;;;;5.00;4.33;;;;;26.22;32.14;101987.03;6304568;22;45315;-73
2023/06/02 03:43:24;;;;;;;;;5.00;4.33;;;;;26.21;31.90;101973.84;6303362;22;45242;-73
2023/06/02 03:45:49;;;;;;;;;5.00;5.00;;;;;26.19;31.94;101968.72;6305340;22;45284;-73
2023/06/02 03:48:15;;;;;;;;;5.00;5.00;;;;;26.14;31.59;101963.94;6304052;22;47077;-73
2023/06/02 03:50:41;;;;;;;;;4.67;4.67;;;;;26.21;31.47;101977.34;6304506;22;45282;-73
2023/06/02 03:53:06;;;;;;;;;4.33;4.00;;;;;26.22;31.63;101979.03;6305081;22;45294;-73
2023/06/02 03:55:31;;;;;;;;;6.00;5.00;;;;;26.18;31.42;101967.88;6304680;22;45226;-73
2023/06/02 03:57:57;;;;;;;;;6.00;5.00;;;;;26.17;31.85;101968.91;6304643;22;45240;-73
2023/06/02 04:00:23;;;;;;;;;4.33;4.33;;;;;26.14;31.80;101968.44;6304940;22;45181;-73
2023/06/02 04:02:48;;;;;;;;;4.33;4.33;;;;;26.20;31.62;101977.56;6305088;22;45316;-73
2023/06/02 04:05:14;;;;;;;;;5.00;4.00;;;;;26.20;31.85;101973.06;6305297;22;45166;-73
2023/06/02 04:07:40;;;;;;;;;4.67;4.67;;;;;26.20;31.83;101977.56;6302858;22;46459;-74
2023/06/02 04:10:06;;;;;;;;;4.33;4.33;;;;;26.18;31.29;101977.72;6305093;22;45317;-73
2023/06/02 04:12:32;;;;;;;;;6.00;6.00;;;;;26.17;31.53;101976.91;6304874;22;45402;-73
2023/06/02 04:14:57;;;;;;;;;4.00;4.00;;;;;26.16;31.49;101971.72;6304805;22;45301;-73
2023/06/02 04:17:22;;;;;;;;;6.33;6.33;;;;;26.16;31.35;101964.56;6304469;22;46539;-73
2023/06/02 04:19:48;;;;;;;;;7.00;6.00;;;;;26.20;31.60;101967.72;6304484;22;45348;-73
2023/06/02 04:22:13;;;;;;;;;6.00;5.00;;;;;26.15;31.86;101965.56;6305128;22;45335;-73
2023/06/02 04:24:41;;;;;;;;;4.67;4.67;;;;;26.10;31.50;101954.63;6303155;22;45447;-73
2023/06/02 04:27:06;;;;;;;;;5.00;5.00;;;;;26.20;31.62;101975.72;6304440;22;46287;-73
2023/06/02 04:29:33;;;;;;;;;4.00;3.67;;;;;26.17;31.53;101966.25;6304911;22;45224;-73
2023/06/02 04:31:58;;;;;;;;;5.00;4.00;;;;;26.15;31.09;101960.22;6304529;22;45221;-73
2023/06/02 04:34:24;;;;;;;;;5.00;5.00;;;;;26.16;31.43;101977.91;6304597;22;45263;-73
2023/06/02 04:36:50;;;;;;;;;3.00;3.00;;;;;26.15;31.26;101978.91;6304454;22;45447;-74
2023/06/02 04:39:15;;;;;;;;;6.67;5.00;;;;;26.10;31.47;101957.28;6304552;22;45087;-73
2023/06/02 04:41:41;;;;;;;;;4.00;3.00;;;;;26.05;31.16;101952.50;6305060;22;45304;-73
2023/06/02 04:44:08;;;;;;;;;5.00;5.00;;;;;26.16;31.37;101979.75;6305344;22;45282;-73
2023/06/02 04:46:33;;;;;;;;;4.67;4.67;;;;;26.14;31.29;101966.59;6303980;22;46356;-73
2023/06/02 04:48:59;;;;;;;;;4.00;2.00;;;;;26.15;31.30;101980.75;6304547;22;45324;-73
2023/06/02 04:51:30;;;;;;;;;4.00;4.00;;;;;26.15;30.96;101978.91;6305048;22;45340;-73
2023/06/02 04:53:56;;;;;;;;;4.33;3.67;;;;;26.06;31.04;101964.84;6304595;22;45455;-73
2023/06/02 04:56:26;;;;;;;;;4.00;4.00;;;;;26.09;30.91;101968.97;6304203;22;45552;-73
2023/06/02 04:58:52;;;;;;;;;5.67;3.00;;;;;26.13;30.82;101977.44;6304444;22;45177;-73
2023/06/02 05:01:17;;;;;;;;;4.67;4.67;;;;;26.06;31.07;101966.66;6304496;22;45201;-73
2023/06/02 05:03:43;;;;;;;;;3.00;3.00;;;;;26.09;31.25;101984.97;6305101;22;45174;-72
2023/06/02 05:06:08;;;;;;;;;4.00;4.00;;;;;26.03;31.15;101964.34;6305022;22;46222;-73
2023/06/02 05:08:33;;;;;;;;;4.67;4.00;;;;;26.07;31.18;101979.81;6304339;22;45202;-73
2023/06/02 05:10:59;;;;;;;;;5.67;4.00;;;;;26.09;30.93;101970.81;6304864;22;45091;-73
2023/06/02 05:13:24;;;;;;;;;3.00;3.00;;;;;26.01;31.13;101967.22;6304553;22;45237;-73
2023/06/02 05:15:50;;;;;;;;;4.00;4.00;;;;;26.08;31.12;101969.97;6304404;22;45909;-74
2023/06/02 05:18:15;;;;;;;;;4.33;4.00;;;;;26.04;31.16;101971.34;6304340;22;45171;-73
2023/06/02 05:20:41;;;;;;;;;4.00;4.00;;;;;26.08;30.71;101975.31;6304564;22;45292;-71
2023/06/02 05:23:07;;;;;;;;;4.00;4.00;;;;;26.02;30.87;101968.03;6304183;22;45304;-73
2023/06/02 05:25:32;;;;;;;;;4.00;4.00;;;;;26.00;30.50;101957.53;6302184;22;47567;-74
2023/06/02 05:27:57;;;;;;;;;5.33;5.00;;;;;26.02;30.60;101973.38;6304573;22;45299;-74
2023/06/02 05:30:23;;;;;;;;;4.00;4.00;;;;;26.04;31.12;101984.69;6303591;22;45384;-76
2023/06/02 05:32:48;;;;;;;;;3.00;2.00;;;;;26.00;31.17;101970.03;6301959;22;45576;-75
2023/06/02 05:35:14;;;;;;;;;5.67;4.00;;;;;26.04;31.34;101976.69;6303485;22;46442;-76
2023/06/02 05:37:39;;;;;;;;;5.33;3.00;;;;;26.07;31.26;101971.00;6304273;22;45335;-75
2023/06/02 05:40:05;;;;;;;;;5.00;5.00;;;;;26.07;31.39;101958.47;6303000;22;45339;-75
2023/06/02 05:42:30;;;;;;;;;5.00;5.00;;;;;26.06;31.49;101959.50;6303315;22;45349;-75
2023/06/02 05:44:55;;;;;;;;;3.67;3.00;;;;;26.09;31.93;101968.13;6302927;22;45335;-74
2023/06/02 05:47:21;;;;;;;;;2.67;2.67;;;;;26.12;31.31;101963.28;6303065;22;45351;-74
2023/06/02 05:49:46;;;;;;;;;4.00;4.00;;;;;26.12;32.12;101963.28;6303166;22;45301;-74
2023/06/02 05:52:11;;;;;;;;;7.00;3.33;;;;;26.22;31.91;101976.34;6303649;22;45400;-73
2023/06/02 05:54:37;;;;;;;;;3.33;3.33;;;;;26.22;32.05;101971.03;6303752;22;45265;-72
2023/06/02 05:57:02;;;;;;;;;7.00;4.00;;;;;26.25;32.21;101980.50;6303991;22;45214;-72
2023/06/02 05:59:28;;;;;;;;;4.67;3.67;;;;;26.26;32.21;101974.13;6303519;22;45148;-72
2023/06/02 06:01:53;;;;;;;;;4.00;4.00;;;;;26.28;32.46;101983.63;6303924;22;45241;-74
2023/06/02 06:04:18;;;;;;;;;6.00;6.00;;;;;26.30;32.25;101980.78;6302334;22;46068;-73
2023/06/02 06:06:44;;;;;;;;;5.00;4.00;;;;;26.31;31.69;101978.94;6304643;22;45296;-73
2023/06/02 06:09:10;;;;;;;;;5.00;4.33;;;;;26.24;32.04;101970.81;6304076;22;45360;-72
2023/06/02 06:11:36;;;;;;;;;4.00;4.00;;;;;26.27;31.59;101975.81;6304551;22;45245;-73
2023/06/02 06:14:02;;;;;;;;;3.00;3.00;;;;;26.29;31.44;101981.78;6303821;22;45275;-74
2023/06/02 06:16:28;;;;;;;;;4.67;4.00;;;;;26.25;31.61;101973.34;6303803;22;45394;-75
2023/06/02 06:18:55;;;;;;;;;3.33;3.33;;;;;26.21;31.48;101960.50;6304014;22;45326;-74
2023/06/02 06:21:20;;;;;;;;;4.50;4.50;;;;;26.24;31.06;101974.34;6302447;22;45499;-73
2023/06/02 06:23:45;;;;;;;;;4.00;4.00;;;;;26.12;31.24;101959.78;6304028;22;45999;-73
2023/06/02 06:26:11;;;;;;;;;2.67;2.67;;;;;26.09;30.60;101965.47;6303823;22;45247;-74
2023/06/02 06:28:37;;;;;;;;;2.33;2.33;;;;;26.02;30.71;101973.38;6304325;22;45661;-73
2023/06/02 06:31:02;;;;;;;;;9.00;2.00;;;;;25.99;31.02;101976.41;6300730;22;45503;-74
2023/06/02 06:33:29;;;;;;;;;2.67;2.33;;;;;25.97;30.78;101971.22;6301214;22;46348;-74
2023/06/02 06:35:54;;;;;;;;;4.00;3.00;;;;;25.99;30.79;101979.06;6303514;22;45257;-74
2023/06/02 06:38:19;;;;;;;;;9.00;2.67;;;;;25.99;30.65;101973.72;6304012;22;45252;-73
2023/06/02 06:40:45;;;;;;;;;2.33;2.33;;;;;25.96;30.59;101969.59;6303322;22;45221;-73
2023/06/02 06:43:10;;;;;;;;;3.00;2.00;;;;;25.97;30.74;101973.91;6302421;22;47219;-73
2023/06/02 06:45:36;;;;;;;;;6.00;3.67;;;;;25.98;30.82;101967.56;6303073;22;45284;-74
2023/06/02 06:48:04;;;;;;;;;3.00;3.00;;;;;26.02;30.64;101974.19;6302784;22;45437;-73
2023/06/02 06:50:29;;;;;;;;;3.00;2.00;;;;;26.00;30.80;101970.88;6303462;22;45340;-73
2023/06/02 06:52:55;;;;;;;;;4.33;4.00;;;;;26.00;30.68;101965.53;6305026;22;45662;-73
2023/06/02 06:55:20;;;;;;;;;7.67;2.33;;;;;26.00;30.87;101973.53;6304243;22;45308;-73
2023/06/02 06:57:45;;;;;;;;;7.00;4.00;;;;;26.00;30.86;101975.38;6305442;22;45300;-73
2023/06/02 07:00:11;;;;;;;;;2.67;2.67;;;;;25.99;30.67;101971.06;6305171;22;45283;-73
2023/06/02 07:02:37;;;;;;;;;5.00;3.00;;;;;25.95;30.67;101968.75;6304762;22;47365;-73
2023/06/02 07:05:03;;;;;;;;;4.00;2.00;;;;;26.05;30.58;101989.00;6304638;22;45223;-73
2023/06/02 07:07:29;;;;;;;;;3.00;2.33;;;;;26.04;30.75;101996.19;6304980;22;45346;-73
2023/06/02 07:09:54;;;;;;;;;2.00;2.00;;;;;26.02;30.66;101989.38;6303992;22;45345;-72
2023/06/02 07:12:19;;;;;;;;;2.00;2.00;;;;;26.02;30.66;101992.84;6305041;22;45291;-72
2023/06/02 07:14:45;;;;;;;;;5.00;3.00;;;;;26.02;30.31;101989.38;6304869;22;45316;-76
2023/06/02 07:17:10;;;;;;;;;3.00;3.00;;;;;26.00;30.58;101981.53;6305280;22;45344;-76
2023/06/02 07:19:35;;;;;;;;;3.67;3.67;;;;;26.04;30.54;101974.03;6304837;22;45201;-74
2023/06/02 07:22:01;;;;;;;;;3.00;2.00;;;;;26.05;30.37;101979.16;6302966;22;48200;-74
2023/06/02 07:24:26;;;;;;;;;5.33;4.00;;;;;26.05;30.49;101978.31;6304776;22;45285;-74
2023/06/02 07:26:51;;;;;;;;;2.67;2.67;;;;;26.04;30.63;101972.19;6305322;22;45234;-73
2023/06/02 07:29:18;;;;;;;;;3.00;3.00;;;;;26.05;31.00;101970.31;6305347;22;45387;-72
2023/06/02 07:31:43;;;;;;;;;3.67;3.00;;;;;26.04;30.98;101972.19;6304195;22;47381;-72
2023/06/02 07:34:09;;;;;;;;;6.00;4.00;;;;;26.12;30.98;101986.44;6305132;22;45270;-74
2023/06/02 07:36:34;;;;;;;;;3.67;3.00;;;;;26.08;30.83;101972.63;6304759;22;45280;-73
2023/06/02 07:39:00;;;;;;;;;6.33;3.00;;;;;26.09;30.89;101962.81;6304639;22;45415;-72
2023/06/02 07:41:27;;;;;;;;;5.33;3.00;;;;;26.10;30.74;101975.94;6304902;22;45287;-72
2023/06/02 07:43:53;;;;;;;;;3.67;3.67;;;;;26.12;30.95;101976.63;6304500;22;45178;-73
2023/06/02 07:46:18;;;;;;;;;3.67;3.00;;;;;26.17;31.11;101978.75;6304617;22;45221;-73
2023/06/02 07:48:43;;;;;;;;;5.33;3.00;;;;;26.16;30.72;101983.25;6305394;22;45326;-73
2023/06/02 07:51:09;;;;;;;;;3.33;2.00;;;;;26.15;30.63;101978.91;6304177;22;45177;-72
2023/06/02 07:53:34;;;;;;;;;7.00;3.67;;;;;26.16;30.60;101988.56;6302616;22;45220;-72
2023/06/02 07:56:00;;;;;;;;;5.00;4.33;;;;;26.21;30.57;101985.34;6304677;22;45221;-72
2023/06/02 07:58:25;;;;;;;;;9.00;6.00;;;;;26.20;30.27;102002.38;6305000;22;45163;-77
2023/06/02 08:00:50;;;;;;;;;5.33;3.00;;;;;26.15;30.35;101986.09;6304470;22;46192;-73
2023/06/02 08:03:16;;;;;;;;;6.00;4.00;;;;;26.09;30.81;101971.66;6304513;22;45245;-71
2023/06/02 08:05:42;;;;;;;;;7.00;5.00;;;;;26.11;30.35;101968.78;6304680;22;45208;-72
2023/06/02 08:08:09;;;;;;;;;6.33;3.67;;;;;26.17;30.78;101987.56;6304618;22;45318;-71
2023/06/02 08:10:35;;;;;;;;;4.00;3.00;;;;;26.15;31.15;101978.09;6304556;22;45332;-71
2023/06/02 08:13:00;;;;;;;;;8.33;5.00;;;;;26.21;30.67;101984.53;6304460;22;45304;-73
2023/06/02 08:15:25;;;;;;;;;4.33;3.00;;;;;26.22;30.89;101979.03;6304483;22;45331;-71
2023/06/02 08:17:51;;;;;;;;;5.67;4.00;;;;;26.23;31.04;101988.66;6304864;22;45407;-68
2023/06/02 08:20:16;;;;;;;;;7.33;6.00;;;;;26.19;30.98;101976.72;6304286;22;46013;-69
2023/06/02 08:22:44;;;;;;;;;7.00;3.33;;;;;26.26;30.89;101990.16;6302551;22;45366;-68
2023/06/02 08:25:10;;;;;;;;;6.67;4.67;;;;;26.22;31.18;101978.19;6304505;22;45249;-69
2023/06/02 08:27:36;;;;;;;;;4.67;3.00;;;;;26.26;31.02;101984.81;6304361;22;45419;-69
2023/06/02 08:30:03;;;;;;;;;29.25;24.75;;;;;26.29;30.95;102003.13;6304018;22;46300;-68
2023/06/02 08:32:29;;;;;;;;;52.75;41.75;;;;;26.29;31.33;101998.63;6303891;22;45339;-68
2023/06/02 08:34:56;;;;;;;;;41.25;30.25;;;;;26.29;31.26;101992.44;6304281;22;45324;-69
2023/06/02 08:37:22;;;;;;;;;32.25;26.50;;;;;26.29;31.68;101987.94;6303824;22;45283;-69
2023/06/02 08:39:49;;;;;;;;;37.25;30.50;;;;;26.31;31.58;101978.94;6304370;22;46311;-70
2023/06/02 08:42:16;;;;;;;;;30.75;27.25;;;;;26.27;31.65;101973.97;6303892;22;45236;-70
2023/06/02 08:44:43;;;;;;;;;34.50;28.75;;;;;26.35;31.43;102005.06;6304259;22;45300;-70
2023/06/02 08:47:11;;;;;;;;;31.00;27.00;;;;;26.33;31.82;101988.44;6304413;22;45296;-69
2023/06/02 08:49:40;;;;;;;;;33.75;30.25;;;;;26.39;31.80;101989.50;6303929;22;46330;-70
2023/06/02 08:52:11;;;;;;;;;39.50;30.25;;;;;26.41;31.83;101993.66;6303746;22;45282;-70
2023/06/02 08:54:40;;;;;;;;;31.00;25.75;;;;;26.36;32.01;101976.56;6304042;22;45200;-69
2023/06/02 08:57:07;;;;;;;;;31.25;24.75;;;;;26.43;32.04;101982.00;6304163;22;45178;-72
2023/06/02 08:59:33;;;;;;;;;25.00;24.50;;;;;26.47;32.12;101980.63;6304112;22;46416;-70
2023/06/02 09:02:00;;;;;;;;;23.50;20.75;;;;;26.51;32.21;101987.28;6303896;22;45263;-70
2023/06/02 09:04:27;;;;;;;;;28.25;25.00;;;;;26.52;31.74;101995.09;6303565;22;45430;-70
2023/06/02 09:07:11;;;;;;;;;24.25;21.00;;;;;26.59;31.93;102002.38;6302855;22;45439;-71
2023/06/02 09:09:47;;;;;;;;;23.50;20.00;;;;;26.60;31.99;101982.66;6304239;22;46149;-71
2023/06/02 09:12:14;;;;;;;;;25.75;21.00;;;;;26.67;31.99;101972.09;6304441;22;45248;-71
2023/06/02 09:14:40;;;;;;;;;24.75;19.50;;;;;26.70;32.40;101975.19;6303556;22;45230;-71
2023/06/02 09:17:28;;;;;;;;;21.75;19.25;;;;;26.77;31.96;101983.31;6304161;22;45483;-72
2023/06/02 09:19:56;;;;;;;;;20.75;18.00;;;;;26.81;32.46;101976.59;6304084;22;45317;-71
2023/06/02 09:22:21;;;;;;;;;22.00;18.50;;;;;26.77;31.94;101950.44;6303969;22;45323;-70
2023/06/02 09:24:47;;;;;;;;;19.75;15.25;;;;;26.76;31.91;101949.63;6304697;22;45292;-71
2023/06/02 09:27:14;;;;;;;;;18.25;15.00;;;;;26.98;32.22;101955.03;6303899;22;45306;-71
2023/06/02 09:29:40;;;;;;;;;16.50;16.00;;;;;27.00;32.05;101969.00;6304418;22;46551;-71
2023/06/02 09:32:14;;;;;;;;;15.00;13.50;;;;;27.04;32.18;101950.75;6303679;22;45310;-71
2023/06/02 09:34:40;;;;;;;;;14.25;11.50;;;;;27.06;32.06;101946.06;6304011;22;45308;-70
2023/06/02 09:37:13;;;;;;;;;17.25;13.50;;;;;27.15;31.51;101952.97;6303946;22;45188;-70
2023/06/02 09:39:42;;;;;;;;;16.50;13.25;;;;;27.18;31.81;101957.13;6303652;22;46414;-71
2023/06/02 09:42:08;;;;;;;;;15.00;12.75;;;;;27.19;31.49;101966.81;6303873;22;45356;-71
2023/06/02 09:44:33;;;;;;;;;16.50;12.25;;;;;27.22;32.12;101945.03;6304198;22;45311;-71
2023/06/02 09:46:59;;;;;;;;;16.00;13.00;;;;;27.29;31.62;101945.13;6302223;22;45501;-70
2023/06/02 09:49:25;;;;;;;;;11.75;10.75;;;;;27.32;31.49;101942.06;6303412;22;47246;-70
2023/06/02 09:51:50;;;;;;;;;10.50;10.25;;;;;27.32;31.37;101955.44;6303913;22;45432;-71
2023/06/02 09:54:16;;;;;;;;;11.50;11.25;;;;;27.33;31.50;101953.56;6304623;22;45336;-72
2023/06/02 09:56:41;;;;;;;;;11.25;10.25;;;;;27.37;31.50;101944.16;6304544;22;45275;-70
2023/06/02 09:59:08;;;;;;;;;10.75;9.00;;;;;27.35;31.99;101927.50;6304123;22;45497;-70
2023/06/02 10:01:35;;;;;;;;;15.50;11.50;;;;;27.41;32.10;101926.72;6304371;22;45517;-70
2023/06/02 10:04:02;;;;;;;;;10.00;10.00;;;;;27.44;31.67;101950.41;6302962;22;45228;-69
2023/06/02 10:06:33;;;;;;;;;11.33;7.67;;;;;27.49;31.46;101949.81;6303390;22;45275;-70
2023/06/02 10:09:12;;;;;;;;;12.00;10.33;;;;;27.47;32.21;101936.66;6303156;22;45351;-71
2023/06/02 10:11:55;;;;;;;;;12.00;8.25;;;;;27.49;31.91;101942.63;6303319;22;45430;-72
2023/06/02 10:14:42;;;;;;;;;16.75;8.00;;;;;27.50;32.34;101936.28;6304100;22;45226;-70
2023/06/02 10:17:44;;;;;;;;;16.00;10.00;;;;;27.52;31.95;101936.91;6303019;22;45549;-69
2023/06/02 10:20:18;;;;;;;;;12.00;7.33;;;;;27.46;31.95;101926.97;6288708;22;47526;-69
2023/06/02 10:23:24;;;;;;;;;14.00;9.00;;;;;27.49;32.01;101923.94;6303656;22;45283;-69
2023/06/02 10:25:53;;;;;;;;;8.33;7.67;;;;;27.54;32.85;101943.91;6304169;22;45171;-70
2023/06/02 10:28:19;;;;;;;;;10.33;8.33;;;;;27.51;32.79;101932.56;6304665;22;45548;-71
2023/06/02 10:30:45;;;;;;;;;6.33;6.33;;;;;27.52;32.75;101936.91;6304321;22;47263;-71
2023/06/02 10:33:10;;;;;;;;;10.00;7.00;;;;;27.48;32.18;101932.16;6302327;22;45443;-72
2023/06/02 10:35:55;;;;;;;;;9.67;8.00;;;;;27.56;32.06;101925.84;6304436;22;45284;-73
2023/06/02 10:38:28;;;;;;;;;14.00;9.33;;;;;27.55;32.50;101934.88;6304962;22;45391;-71
2023/06/02 10:40:54;;;;;;;;;7.00;5.00;;;;;27.51;32.36;101921.88;6303927;22;46101;-70
2023/06/02 10:43:20;;;;;;;;;5.67;5.33;;;;;27.50;32.92;101922.91;6304481;22;45801;-70
2023/06/02 10:45:46;;;;;;;;;7.00;6.00;;;;;27.55;32.31;101924.19;6304660;22;45265;-70
2023/06/02 10:48:42;;;;;;;;;11.33;6.67;;;;;27.54;32.06;101914.50;6304741;22;45246;-70
2023/06/02 10:51:09;;;;;;;;;11.00;7.67;;;;;27.51;32.01;101924.56;6304828;22;46246;-70
2023/06/02 10:54:06;;;;;;;;;8.67;5.33;;;;;27.50;31.63;101927.44;6304422;22;45383;-69
2023/06/02 10:56:40;;;;;;;;;6.67;6.33;;;;;27.50;31.67;101925.59;6292568;22;45272;-69
2023/06/02 10:59:09;;;;;;;;;6.33;6.33;;;;;27.41;31.89;101905.34;6303470;22;45344;-69
2023/06/02 11:01:49;;;;;;;;;8.33;8.33;;;;;27.46;31.80;101920.78;6304577;22;45442;-71
2023/06/02 11:04:35;;;;;;;;;8.33;7.00;;;;;27.40;31.72;101901.84;6304336;22;45228;-72
2023/06/02 11:07:18;;;;;;;;;7.00;6.00;;;;;27.41;31.50;101908.03;6305249;22;45277;-72
2023/06/02 11:09:43;;;;;;;;;9.67;6.00;;;;;27.37;31.55;101910.25;6304856;22;45536;-72
2023/06/02 11:12:09;;;;;;;;;9.33;8.00;;;;;27.37;31.92;101904.09;6304641;22;46931;-71
2023/06/02 11:15:04;;;;;;;;;5.67;5.67;;;;;27.42;31.06;101914.19;6305175;22;45248;-72
2023/06/02 11:17:35;;;;;;;;;6.00;5.00;;;;;27.33;31.05;101898.28;6304660;22;45305;-72
2023/06/02 11:20:05;;;;;;;;;7.33;7.33;;;;;27.39;30.79;101918.06;6305061;22;45229;-70
2023/06/02 11:22:31;;;;;;;;;9.00;7.33;;;;;27.35;31.30;101904.25;6304452;22;45276;-69